Sao Paulo, Brazil
Current Conditions -  °F | °C
As of 3:00 PM on Sunday 21 Dec 2014 (Local Time) from SBMT Reporting Station
Broken Clouds Broken Clouds  
Wind Chill: 86°   Ceiling: 4000
Heat Index: 87°   Visibility: 6mi
Dew Point: 63°   Wind: 10mph
Humidity: 45%   Direction: 330°NNW
Pressure: 29.88"   Gusts: NA
Location:  23.53°S, 46.63°W
Report Text: SBMT 211700Z 33009KT 9999 BKN040 30/17 Q1012
Loading
Personal Weather Stations






























Interactive Weather Map New forecast layout! Learn more

10-Day Weather Forecast

Advertisements
Track Severe Weather on mobile